sensor_id;sensor_type;location;lat;lon;timestamp;pressure;altitude;pressure_sealevel;temperature;humidity
35226;BME280;21813;49.686;21.766;2022-07-09T00:06:24;98971.75;;;15.35;100.00
35226;BME280;21813;49.686;21.766;2022-07-09T00:09:05;98953.22;;;15.27;100.00
35226;BME280;21813;49.686;21.766;2022-07-09T00:11:45;98969.25;;;15.24;100.00
35226;BME280;21813;49.686;21.766;2022-07-09T00:17:41;98946.44;;;15.15;100.00
35226;BME280;21813;49.686;21.766;2022-07-09T00:23:43;98972.56;;;15.26;100.00
35226;BME280;21813;49.686;21.766;2022-07-09T00:26:11;98956.25;;;15.13;100.00
35226;BME280;21813;49.686;21.766;2022-07-09T00:40:30;98948.94;;;14.97;100.00
35226;BME280;21813;49.686;21.766;2022-07-09T00:43:22;98953.47;;;15.05;99.98
35226;BME280;21813;49.686;21.766;2022-07-09T00:45:58;98929.97;;;14.94;100.00
35226;BME280;21813;49.686;21.766;2022-07-09T03:30:52;98905.72;;;14.42;100.00
35226;BME280;21813;49.686;21.766;2022-07-09T03:33:45;98918.28;;;14.48;100.00
35226;BME280;21813;49.686;21.766;2022-07-09T03:40:20;98906.91;;;14.38;100.00
35226;BME280;21813;49.686;21.766;2022-07-09T04:43:54;98903.75;;;14.44;97.08
35226;BME280;21813;49.686;21.766;2022-07-09T04:46:34;98926.72;;;14.62;96.51
35226;BME280;21813;49.686;21.766;2022-07-09T04:49:05;98925.75;;;14.63;96.66
35226;BME280;21813;49.686;21.766;2022-07-09T05:08:51;98918.38;;;14.96;94.49
35226;BME280;21813;49.686;21.766;2022-07-09T05:12:15;98953.78;;;15.21;93.51
35226;BME280;21813;49.686;21.766;2022-07-09T05:24:19;98934.69;;;15.19;92.89
35226;BME280;21813;49.686;21.766;2022-07-09T05:26:56;98955.19;;;15.35;92.73
35226;BME280;21813;49.686;21.766;2022-07-09T05:33:04;98941.06;;;15.45;91.30
35226;BME280;21813;49.686;21.766;2022-07-09T05:35:52;98952.13;;;15.59;90.50
35226;BME280;21813;49.686;21.766;2022-07-09T05:38:18;98923.09;;;15.51;90.00
35226;BME280;21813;49.686;21.766;2022-07-09T05:43:35;98938.31;;;15.76;88.07
35226;BME280;21813;49.686;21.766;2022-07-09T06:55:09;98886.25;;;17.34;73.74
35226;BME280;21813;49.686;21.766;2022-07-09T07:00:31;98899.34;;;17.61;71.40
35226;BME280;21813;49.686;21.766;2022-07-09T12:22:34;98693.00;;;20.85;56.84
35226;BME280;21813;49.686;21.766;2022-07-09T12:40:57;98692.38;;;20.97;50.90
35226;BME280;21813;49.686;21.766;2022-07-09T12:43:29;98660.53;;;20.83;51.53
35226;BME280;21813;49.686;21.766;2022-07-09T12:46:37;98681.06;;;21.03;51.90
35226;BME280;21813;49.686;21.766;2022-07-09T12:49:24;98655.53;;;20.88;51.37
35226;BME280;21813;49.686;21.766;2022-07-09T12:52:03;98666.03;;;20.96;52.06
35226;BME280;21813;49.686;21.766;2022-07-09T12:57:46;98656.88;;;20.84;53.36
35226;BME280;21813;49.686;21.766;2022-07-09T13:00:23;98676.00;;;20.94;53.77
35226;BME280;21813;49.686;21.766;2022-07-09T13:02:59;98668.19;;;20.78;55.14
35226;BME280;21813;49.686;21.766;2022-07-09T13:05:24;98656.41;;;20.65;55.24
35226;BME280;21813;49.686;21.766;2022-07-09T13:08:00;98660.75;;;20.58;55.09
35226;BME280;21813;49.686;21.766;2022-07-09T13:23:28;98652.50;;;20.53;55.82
35226;BME280;21813;49.686;21.766;2022-07-09T13:26:12;98612.88;;;20.45;56.29
35226;BME280;21813;49.686;21.766;2022-07-09T13:28:41;98648.38;;;20.73;56.40
35226;BME280;21813;49.686;21.766;2022-07-09T13:31:08;98641.91;;;20.76;52.43
35226;BME280;21813;49.686;21.766;2022-07-09T13:34:11;98613.75;;;20.75;48.60
35226;BME280;21813;49.686;21.766;2022-07-09T13:37:00;98629.59;;;20.98;48.57
35226;BME280;21813;49.686;21.766;2022-07-09T13:39:47;98599.22;;;20.86;49.45
35226;BME280;21813;49.686;21.766;2022-07-09T13:42:15;98582.78;;;20.76;49.51
35226;BME280;21813;49.686;21.766;2022-07-09T14:01:49;98605.56;;;20.85;52.93
35226;BME280;21813;49.686;21.766;2022-07-09T14:08:35;98591.56;;;20.91;50.39
35226;BME280;21813;49.686;21.766;2022-07-09T14:13:54;98606.84;;;21.03;50.95
35226;BME280;21813;49.686;21.766;2022-07-09T14:16:54;98582.72;;;20.98;51.25
35226;BME280;21813;49.686;21.766;2022-07-09T14:23:06;98583.44;;;21.07;50.96
35226;BME280;21813;49.686;21.766;2022-07-09T14:25:41;98591.59;;;21.20;51.05
35226;BME280;21813;49.686;21.766;2022-07-09T15:51:19;98500.00;;;21.03;49.58
35226;BME280;21813;49.686;21.766;2022-07-09T15:54:08;98521.38;;;21.16;49.38
35226;BME280;21813;49.686;21.766;2022-07-09T15:56:35;98492.88;;;21.03;49.77
35226;BME280;21813;49.686;21.766;2022-07-09T15:59:03;98491.28;;;21.09;49.61
35226;BME280;21813;49.686;21.766;2022-07-09T16:01:56;98475.19;;;21.10;49.84
35226;BME280;21813;49.686;21.766;2022-07-09T16:04:33;98494.88;;;21.16;49.85
35226;BME280;21813;49.686;21.766;2022-07-09T16:06:59;98500.28;;;21.08;50.06
35226;BME280;21813;49.686;21.766;2022-07-09T16:09:25;98511.16;;;21.13;50.06
35226;BME280;21813;49.686;21.766;2022-07-09T16:11:54;98500.81;;;21.03;50.28
35226;BME280;21813;49.686;21.766;2022-07-09T16:14:53;98490.59;;;20.86;50.56
35226;BME280;21813;49.686;21.766;2022-07-09T16:17:19;98496.16;;;20.91;50.66
35226;BME280;21813;49.686;21.766;2022-07-09T16:20:11;98498.81;;;20.91;50.40
35226;BME280;21813;49.686;21.766;2022-07-09T16:22:43;98504.50;;;20.88;50.37
35226;BME280;21813;49.686;21.766;2022-07-09T16:25:11;98494.00;;;20.80;50.04
35226;BME280;21813;49.686;21.766;2022-07-09T16:27:41;98501.94;;;20.80;50.21
35226;BME280;21813;49.686;21.766;2022-07-09T16:30:12;98490.16;;;20.67;50.75
35226;BME280;21813;49.686;21.766;2022-07-09T16:32:38;98499.13;;;20.66;50.62
35226;BME280;21813;49.686;21.766;2022-07-09T16:35:05;98512.38;;;20.66;51.53
35226;BME280;21813;49.686;21.766;2022-07-09T16:37:38;98482.13;;;20.46;51.72
35226;BME280;21813;49.686;21.766;2022-07-09T16:40:07;98487.78;;;20.43;52.07
35226;BME280;21813;49.686;21.766;2022-07-09T16:42:34;98484.50;;;20.41;52.10
35226;BME280;21813;49.686;21.766;2022-07-09T16:45:09;98485.22;;;20.35;52.57
35226;BME280;21813;49.686;21.766;2022-07-09T16:47:38;98506.59;;;20.48;53.09
35226;BME280;21813;49.686;21.766;2022-07-09T16:50:05;98492.25;;;20.43;53.12
35226;BME280;21813;49.686;21.766;2022-07-09T16:52:31;98485.59;;;20.32;53.55
35226;BME280;21813;49.686;21.766;2022-07-09T16:54:56;98480.63;;;20.29;53.79
35226;BME280;21813;49.686;21.766;2022-07-09T16:57:26;98499.09;;;20.37;53.72
35226;BME280;21813;49.686;21.766;2022-07-09T16:59:53;98505.41;;;20.36;53.99
35226;BME280;21813;49.686;21.766;2022-07-09T17:02:19;98471.47;;;20.17;54.40
35226;BME280;21813;49.686;21.766;2022-07-09T17:04:45;98483.34;;;20.21;54.35
35226;BME280;21813;49.686;21.766;2022-07-09T17:07:11;98484.16;;;20.21;54.49
35226;BME280;21813;49.686;21.766;2022-07-09T17:09:36;98490.47;;;20.20;54.68
35226;BME280;21813;49.686;21.766;2022-07-09T17:12:03;98469.72;;;20.09;54.63
35226;BME280;21813;49.686;21.766;2022-07-09T17:14:29;98469.72;;;20.09;54.76
35226;BME280;21813;49.686;21.766;2022-07-09T17:16:55;98488.53;;;20.14;54.78
35226;BME280;21813;49.686;21.766;2022-07-09T17:19:21;98461.31;;;19.91;54.97
35226;BME280;21813;49.686;21.766;2022-07-09T17:21:47;98473.53;;;19.92;54.88
35226;BME280;21813;49.686;21.766;2022-07-09T17:24:13;98483.91;;;19.94;54.89
35226;BME280;21813;49.686;21.766;2022-07-09T17:26:40;98480.06;;;19.81;55.53
35226;BME280;21813;49.686;21.766;2022-07-09T17:29:06;98480.34;;;19.87;55.31
35226;BME280;21813;49.686;21.766;2022-07-09T17:34:32;98464.28;;;19.73;55.48
35226;BME280;21813;49.686;21.766;2022-07-09T17:36:58;98458.97;;;19.73;55.56
35226;BME280;21813;49.686;21.766;2022-07-09T17:39:23;98450.69;;;19.76;55.62
35226;BME280;21813;49.686;21.766;2022-07-09T17:41:57;98440.50;;;19.65;55.48
35226;BME280;21813;49.686;21.766;2022-07-09T17:44:23;98467.53;;;19.75;55.43
35226;BME280;21813;49.686;21.766;2022-07-09T17:46:51;98446.06;;;19.56;55.59
35226;BME280;21813;49.686;21.766;2022-07-09T17:49:17;98472.38;;;19.72;55.93
35226;BME280;21813;49.686;21.766;2022-07-09T17:51:43;98434.72;;;19.47;56.50
35226;BME280;21813;49.686;21.766;2022-07-09T17:54:13;98436.19;;;19.50;57.61
35226;BME280;21813;49.686;21.766;2022-07-09T17:56:40;98443.66;;;19.46;58.46
35226;BME280;21813;49.686;21.766;2022-07-09T17:59:07;98457.06;;;19.45;59.06
35226;BME280;21813;49.686;21.766;2022-07-09T18:01:33;98450.31;;;19.34;59.44
35226;BME280;21813;49.686;21.766;2022-07-09T18:04:11;98424.69;;;19.12;59.65
35226;BME280;21813;49.686;21.766;2022-07-09T18:06:38;98435.94;;;19.14;59.97
35226;BME280;21813;49.686;21.766;2022-07-09T18:09:04;98432.31;;;19.07;59.54
35226;BME280;21813;49.686;21.766;2022-07-09T18:11:29;98417.22;;;18.92;59.31
35226;BME280;21813;49.686;21.766;2022-07-09T18:13:56;98434.50;;;19.03;59.48
35226;BME280;21813;49.686;21.766;2022-07-09T18:16:22;98426.63;;;18.95;59.01
35226;BME280;21813;49.686;21.766;2022-07-09T18:18:47;98416.28;;;18.85;59.72
35226;BME280;21813;49.686;21.766;2022-07-09T18:21:14;98413.69;;;18.77;60.18
35226;BME280;21813;49.686;21.766;2022-07-09T18:23:40;98417.78;;;18.80;60.12
35226;BME280;21813;49.686;21.766;2022-07-09T18:26:09;98425.56;;;18.81;60.61
35226;BME280;21813;49.686;21.766;2022-07-09T18:28:42;98446.47;;;18.83;61.06
35226;BME280;21813;49.686;21.766;2022-07-09T18:31:11;98416.22;;;18.63;61.88
35226;BME280;21813;49.686;21.766;2022-07-09T18:33:42;98439.13;;;18.70;62.78
35226;BME280;21813;49.686;21.766;2022-07-09T18:36:08;98440.44;;;18.74;63.34
35226;BME280;21813;49.686;21.766;2022-07-09T18:38:36;98436.34;;;18.64;63.50
35226;BME280;21813;49.686;21.766;2022-07-09T18:41:11;98435.22;;;18.58;63.73
35226;BME280;21813;49.686;21.766;2022-07-09T18:43:37;98450.19;;;18.66;64.10
35226;BME280;21813;49.686;21.766;2022-07-09T18:46:05;98428.13;;;18.50;64.37
35226;BME280;21813;49.686;21.766;2022-07-09T18:48:30;98440.84;;;18.55;65.09
35226;BME280;21813;49.686;21.766;2022-07-09T18:50:56;98424.69;;;18.42;65.65
35226;BME280;21813;49.686;21.766;2022-07-09T18:53:24;98435.09;;;18.43;66.27
35226;BME280;21813;49.686;21.766;2022-07-09T19:02:27;98432.47;;;18.27;67.13
35226;BME280;21813;49.686;21.766;2022-07-09T19:05:10;98465.25;;;18.41;67.46
35226;BME280;21813;49.686;21.766;2022-07-09T19:10:44;98447.84;;;18.24;67.73
35226;BME280;21813;49.686;21.766;2022-07-09T19:16:27;98445.38;;;18.14;68.55
35226;BME280;21813;49.686;21.766;2022-07-09T19:18:52;98461.06;;;18.16;69.04
35226;BME280;21813;49.686;21.766;2022-07-09T19:21:18;98445.41;;;18.06;69.16
35226;BME280;21813;49.686;21.766;2022-07-09T19:23:53;98449.84;;;18.05;68.94
35226;BME280;21813;49.686;21.766;2022-07-09T19:26:48;98436.69;;;17.97;69.11
35226;BME280;21813;49.686;21.766;2022-07-09T19:30:04;98436.50;;;17.91;69.45
35226;BME280;21813;49.686;21.766;2022-07-09T19:32:34;98451.34;;;18.00;69.57
35226;BME280;21813;49.686;21.766;2022-07-09T19:35:19;98456.81;;;17.98;70.15
35226;BME280;21813;49.686;21.766;2022-07-09T19:37:51;98451.00;;;17.95;70.85
35226;BME280;21813;49.686;21.766;2022-07-09T19:51:49;98425.69;;;17.61;72.28
35226;BME280;21813;49.686;21.766;2022-07-09T19:57:51;98418.22;;;17.49;73.19
35226;BME280;21813;49.686;21.766;2022-07-09T20:00:19;98426.13;;;17.49;73.16
35226;BME280;21813;49.686;21.766;2022-07-09T20:02:45;98418.41;;;17.47;73.02
35226;BME280;21813;49.686;21.766;2022-07-09T20:05:18;98434.69;;;17.51;73.22
35226;BME280;21813;49.686;21.766;2022-07-09T20:07:53;98444.25;;;17.52;73.57
35226;BME280;21813;49.686;21.766;2022-07-09T20:10:18;98426.63;;;17.36;74.18
35226;BME280;21813;49.686;21.766;2022-07-09T20:12:44;98441.59;;;17.44;74.22
35226;BME280;21813;49.686;21.766;2022-07-09T20:15:12;98461.41;;;17.48;74.67
35226;BME280;21813;49.686;21.766;2022-07-09T20:31:49;98451.78;;;17.14;76.96
35226;BME280;21813;49.686;21.766;2022-07-09T20:42:16;98443.84;;;16.98;77.18
35226;BME280;21813;49.686;21.766;2022-07-09T20:44:54;98449.94;;;16.99;77.55
35226;BME280;21813;49.686;21.766;2022-07-09T20:55:28;98422.06;;;16.80;78.89
35226;BME280;21813;49.686;21.766;2022-07-09T21:10:22;98450.75;;;16.91;80.10
35226;BME280;21813;49.686;21.766;2022-07-09T21:39:49;98469.09;;;16.75;79.55
35226;BME280;21813;49.686;21.766;2022-07-09T21:42:29;98434.13;;;16.57;79.48
35226;BME280;21813;49.686;21.766;2022-07-09T21:45:17;98443.75;;;16.66;79.36
35226;BME280;21813;49.686;21.766;2022-07-09T21:48:03;98461.53;;;16.72;80.51
35226;BME280;21813;49.686;21.766;2022-07-09T21:51:12;98467.28;;;16.67;80.85
35226;BME280;21813;49.686;21.766;2022-07-09T21:53:48;98471.22;;;16.63;81.40
35226;BME280;21813;49.686;21.766;2022-07-09T21:56:41;98466.69;;;16.56;81.55
35226;BME280;21813;49.686;21.766;2022-07-09T21:59:07;98439.34;;;16.41;81.81
35226;BME280;21813;49.686;21.766;2022-07-09T22:02:04;98463.25;;;16.55;82.21
35226;BME280;21813;49.686;21.766;2022-07-09T22:05:03;98451.19;;;16.45;82.58
35226;BME280;21813;49.686;21.766;2022-07-09T22:10:52;98443.78;;;16.40;83.03
35226;BME280;21813;49.686;21.766;2022-07-09T22:13:46;98424.13;;;16.26;83.07
35226;BME280;21813;49.686;21.766;2022-07-09T22:20:08;98443.56;;;16.33;83.03
35226;BME280;21813;49.686;21.766;2022-07-09T22:22:38;98439.75;;;16.28;83.34
35226;BME280;21813;49.686;21.766;2022-07-09T22:25:04;98445.84;;;16.28;83.15
35226;BME280;21813;49.686;21.766;2022-07-09T22:27:36;98429.66;;;16.15;83.37
35226;BME280;21813;49.686;21.766;2022-07-09T22:30:16;98457.19;;;16.29;83.91
35226;BME280;21813;49.686;21.766;2022-07-09T22:35:59;98444.31;;;16.18;83.98
35226;BME280;21813;49.686;21.766;2022-07-09T22:38:39;98453.47;;;16.14;84.28
35226;BME280;21813;49.686;21.766;2022-07-09T22:44:57;98441.09;;;16.06;84.90
35226;BME280;21813;49.686;21.766;2022-07-09T22:47:26;98452.81;;;16.12;85.06
35226;BME280;21813;49.686;21.766;2022-07-09T22:49:54;98447.19;;;16.07;85.21
35226;BME280;21813;49.686;21.766;2022-07-09T22:52:20;98429.03;;;15.96;85.21
35226;BME280;21813;49.686;21.766;2022-07-09T22:54:47;98430.19;;;15.93;85.53
35226;BME280;21813;49.686;21.766;2022-07-09T22:57:15;98422.75;;;15.88;85.74
35226;BME280;21813;49.686;21.766;2022-07-09T22:59:41;98436.78;;;15.97;85.92
35226;BME280;21813;49.686;21.766;2022-07-09T23:02:08;98438.75;;;15.95;86.07
35226;BME280;21813;49.686;21.766;2022-07-09T23:04:34;98417.00;;;15.85;86.23
35226;BME280;21813;49.686;21.766;2022-07-09T23:07:00;98453.88;;;16.01;86.20
35226;BME280;21813;49.686;21.766;2022-07-09T23:09:26;98432.66;;;15.95;86.51
35226;BME280;21813;49.686;21.766;2022-07-09T23:11:52;98452.59;;;16.05;86.65
35226;BME280;21813;49.686;21.766;2022-07-09T23:14:18;98424.94;;;15.93;86.24
35226;BME280;21813;49.686;21.766;2022-07-09T23:16:56;98432.03;;;16.01;85.84
35226;BME280;21813;49.686;21.766;2022-07-09T23:19:21;98413.06;;;15.89;85.27
35226;BME280;21813;49.686;21.766;2022-07-09T23:21:47;98440.28;;;16.06;84.99
35226;BME280;21813;49.686;21.766;2022-07-09T23:24:13;98406.84;;;15.90;84.65
35226;BME280;21813;49.686;21.766;2022-07-09T23:26:39;98446.03;;;16.09;83.97
35226;BME280;21813;49.686;21.766;2022-07-09T23:29:05;98432.72;;;16.03;83.80
35226;BME280;21813;49.686;21.766;2022-07-09T23:31:31;98435.84;;;16.06;83.53
35226;BME280;21813;49.686;21.766;2022-07-09T23:33:57;98416.34;;;15.91;83.14
35226;BME280;21813;49.686;21.766;2022-07-09T23:36:23;98436.78;;;15.97;83.19
35226;BME280;21813;49.686;21.766;2022-07-09T23:38:49;98420.28;;;15.87;83.13
35226;BME280;21813;49.686;21.766;2022-07-09T23:41:15;98440.38;;;15.96;83.23
35226;BME280;21813;49.686;21.766;2022-07-09T23:43:43;98417.00;;;15.85;82.97
35226;BME280;21813;49.686;21.766;2022-07-09T23:46:10;98415.72;;;15.89;83.43
35226;BME280;21813;49.686;21.766;2022-07-09T23:48:35;98429.50;;;15.91;83.33
35226;BME280;21813;49.686;21.766;2022-07-09T23:51:02;98435.13;;;15.96;83.33
35226;BME280;21813;49.686;21.766;2022-07-09T23:53:35;98430.50;;;15.90;83.84
35226;BME280;21813;49.686;21.766;2022-07-09T23:56:01;98442.03;;;15.97;83.88
35226;BME280;21813;49.686;21.766;2022-07-09T23:58:28;98434.47;;;15.94;84.26
